sensor_id;sensor_type;location;lat;lon;timestamp;pressure;altitude;pressure_sealevel;temperature
70831;BMP180;58451;51.550;7.208;2023-09-12T00:00:06;100624.20;;;19.90
70831;BMP180;58451;51.550;7.208;2023-09-12T00:01:44;100618.60;;;19.90
70831;BMP180;58451;51.550;7.208;2023-09-12T00:03:20;100620.80;;;19.80
70831;BMP180;58451;51.550;7.208;2023-09-12T00:04:53;100616.60;;;19.80
70831;BMP180;58451;51.550;7.208;2023-09-12T00:06:25;100615.40;;;19.80
70831;BMP180;58451;51.550;7.208;2023-09-12T00:07:57;100611.60;;;19.80
70831;BMP180;58451;51.550;7.208;2023-09-12T00:09:29;100609.40;;;19.74
70831;BMP180;58451;51.550;7.208;2023-09-12T00:11:07;100609.40;;;19.70
70831;BMP180;58451;51.550;7.208;2023-09-12T00:12:42;100617.80;;;19.70
70831;BMP180;58451;51.550;7.208;2023-09-12T00:14:18;100616.60;;;19.70
70831;BMP180;58451;51.550;7.208;2023-09-12T00:15:50;100616.40;;;19.70
70831;BMP180;58451;51.550;7.208;2023-09-12T00:17:22;100613.40;;;19.68
70831;BMP180;58451;51.550;7.208;2023-09-12T00:18:53;100616.80;;;19.60
70831;BMP180;58451;51.550;7.208;2023-09-12T00:20:25;100609.00;;;19.60
70831;BMP180;58451;51.550;7.208;2023-09-12T00:21:57;100603.60;;;19.60
70831;BMP180;58451;51.550;7.208;2023-09-12T00:23:29;100602.60;;;19.60
70831;BMP180;58451;51.550;7.208;2023-09-12T00:25:02;100596.00;;;19.50
70831;BMP180;58451;51.550;7.208;2023-09-12T00:26:34;100593.80;;;19.50
70831;BMP180;58451;51.550;7.208;2023-09-12T00:28:05;100583.20;;;19.50
70831;BMP180;58451;51.550;7.208;2023-09-12T00:29:37;100577.40;;;19.50
70831;BMP180;58451;51.550;7.208;2023-09-12T00:31:09;100578.40;;;19.40
70831;BMP180;58451;51.550;7.208;2023-09-12T00:32:41;100579.20;;;19.40
70831;BMP180;58451;51.550;7.208;2023-09-12T00:34:17;100579.80;;;19.40
70831;BMP180;58451;51.550;7.208;2023-09-12T00:35:49;100583.60;;;19.30
70831;BMP180;58451;51.550;7.208;2023-09-12T00:37:21;100587.60;;;19.30
70831;BMP180;58451;51.550;7.208;2023-09-12T00:38:53;100592.20;;;19.30
70831;BMP180;58451;51.550;7.208;2023-09-12T00:40:25;100594.20;;;19.30
70831;BMP180;58451;51.550;7.208;2023-09-12T00:41:57;100600.60;;;19.30
70831;BMP180;58451;51.550;7.208;2023-09-12T00:43:29;100603.80;;;19.20
70831;BMP180;58451;51.550;7.208;2023-09-12T00:45:01;100606.80;;;19.20
70831;BMP180;58451;51.550;7.208;2023-09-12T00:46:34;100616.20;;;19.22
70831;BMP180;58451;51.550;7.208;2023-09-12T00:48:09;100627.20;;;19.20
70831;BMP180;58451;51.550;7.208;2023-09-12T00:49:43;100637.00;;;19.20
70831;BMP180;58451;51.550;7.208;2023-09-12T00:51:27;100645.40;;;19.24
70831;BMP180;58451;51.550;7.208;2023-09-12T00:53:01;100654.80;;;19.30
70831;BMP180;58451;51.550;7.208;2023-09-12T00:54:34;100669.60;;;19.30
70831;BMP180;58451;51.550;7.208;2023-09-12T00:56:06;100681.20;;;19.30
70831;BMP180;58451;51.550;7.208;2023-09-12T00:57:38;100701.40;;;19.30
70831;BMP180;58451;51.550;7.208;2023-09-12T00:59:11;100715.40;;;19.38
70831;BMP180;58451;51.550;7.208;2023-09-12T01:00:44;100722.40;;;19.40
70831;BMP180;58451;51.550;7.208;2023-09-12T01:02:17;100721.60;;;19.40
70831;BMP180;58451;51.550;7.208;2023-09-12T01:03:49;100713.60;;;19.46
70831;BMP180;58451;51.550;7.208;2023-09-12T01:05:22;100697.00;;;19.50
70831;BMP180;58451;51.550;7.208;2023-09-12T01:06:54;100649.60;;;19.50
70831;BMP180;58451;51.550;7.208;2023-09-12T01:08:27;100593.60;;;19.50
70831;BMP180;58451;51.550;7.208;2023-09-12T01:10:00;100550.00;;;19.50
70831;BMP180;58451;51.550;7.208;2023-09-12T01:11:32;100534.20;;;19.50
70831;BMP180;58451;51.550;7.208;2023-09-12T01:13:06;100527.00;;;19.50
70831;BMP180;58451;51.550;7.208;2023-09-12T01:14:39;100518.40;;;19.50
70831;BMP180;58451;51.550;7.208;2023-09-12T01:16:11;100515.40;;;19.50
70831;BMP180;58451;51.550;7.208;2023-09-12T01:17:46;100512.80;;;19.50
70831;BMP180;58451;51.550;7.208;2023-09-12T01:19:20;100514.60;;;19.50
70831;BMP180;58451;51.550;7.208;2023-09-12T01:28:58;100535.60;;;19.42
70831;BMP180;58451;51.550;7.208;2023-09-12T01:30:32;100532.40;;;19.40
70831;BMP180;58451;51.550;7.208;2023-09-12T01:32:08;100532.20;;;19.40
70831;BMP180;58451;51.550;7.208;2023-09-12T01:33:41;100539.60;;;19.40
70831;BMP180;58451;51.550;7.208;2023-09-12T01:35:13;100549.60;;;19.40
70831;BMP180;58451;51.550;7.208;2023-09-12T01:36:45;100549.00;;;19.40
70831;BMP180;58451;51.550;7.208;2023-09-12T01:38:18;100548.00;;;19.40
70831;BMP180;58451;51.550;7.208;2023-09-12T01:39:50;100547.60;;;19.38
70831;BMP180;58451;51.550;7.208;2023-09-12T01:41:23;100547.00;;;19.36
70831;BMP180;58451;51.550;7.208;2023-09-12T01:42:57;100545.60;;;19.36
70831;BMP180;58451;51.550;7.208;2023-09-12T01:44:31;100545.00;;;19.30
70831;BMP180;58451;51.550;7.208;2023-09-12T01:46:03;100552.40;;;19.30
70831;BMP180;58451;51.550;7.208;2023-09-12T01:47:37;100563.60;;;19.30
70831;BMP180;58451;51.550;7.208;2023-09-12T01:49:12;100565.00;;;19.30
70831;BMP180;58451;51.550;7.208;2023-09-12T01:50:47;100568.40;;;19.30
70831;BMP180;58451;51.550;7.208;2023-09-12T01:52:21;100563.20;;;19.30
70831;BMP180;58451;51.550;7.208;2023-09-12T01:53:54;100563.40;;;19.30
70831;BMP180;58451;51.550;7.208;2023-09-12T01:55:27;100563.00;;;19.30
70831;BMP180;58451;51.550;7.208;2023-09-12T01:57:01;100559.00;;;19.30
70831;BMP180;58451;51.550;7.208;2023-09-12T01:58:35;100543.40;;;19.28
70831;BMP180;58451;51.550;7.208;2023-09-12T02:00:08;100545.40;;;19.30
70831;BMP180;58451;51.550;7.208;2023-09-12T02:01:41;100545.20;;;19.26
70831;BMP180;58451;51.550;7.208;2023-09-12T02:03:14;100547.20;;;19.20
70831;BMP180;58451;51.550;7.208;2023-09-12T02:04:58;100553.20;;;19.20
70831;BMP180;58451;51.550;7.208;2023-09-12T02:06:35;100557.80;;;19.20
70831;BMP180;58451;51.550;7.208;2023-09-12T02:08:07;100578.60;;;19.20
70831;BMP180;58451;51.550;7.208;2023-09-12T02:09:39;100594.80;;;19.12
70831;BMP180;58451;51.550;7.208;2023-09-12T02:11:11;100607.00;;;19.10
70831;BMP180;58451;51.550;7.208;2023-09-12T02:12:43;100610.40;;;19.10
70831;BMP180;58451;51.550;7.208;2023-09-12T02:14:15;100612.80;;;19.10
70831;BMP180;58451;51.550;7.208;2023-09-12T02:15:47;100611.20;;;19.10
70831;BMP180;58451;51.550;7.208;2023-09-12T02:17:20;100609.40;;;19.14
70831;BMP180;58451;51.550;7.208;2023-09-12T02:18:53;100606.20;;;19.20
70831;BMP180;58451;51.550;7.208;2023-09-12T02:20:25;100601.20;;;19.20
70831;BMP180;58451;51.550;7.208;2023-09-12T02:21:57;100599.40;;;19.20
70831;BMP180;58451;51.550;7.208;2023-09-12T02:23:29;100590.00;;;19.20
70831;BMP180;58451;51.550;7.208;2023-09-12T02:25:06;100583.20;;;19.20
70831;BMP180;58451;51.550;7.208;2023-09-12T02:26:39;100578.20;;;19.20
70831;BMP180;58451;51.550;7.208;2023-09-12T02:28:11;100564.00;;;19.20
70831;BMP180;58451;51.550;7.208;2023-09-12T02:29:44;100552.60;;;19.20
70831;BMP180;58451;51.550;7.208;2023-09-12T02:31:16;100543.20;;;19.20
70831;BMP180;58451;51.550;7.208;2023-09-12T02:32:48;100539.80;;;19.20
70831;BMP180;58451;51.550;7.208;2023-09-12T02:34:20;100542.20;;;19.20
70831;BMP180;58451;51.550;7.208;2023-09-12T02:35:52;100538.00;;;19.20
70831;BMP180;58451;51.550;7.208;2023-09-12T02:37:24;100535.20;;;19.20
70831;BMP180;58451;51.550;7.208;2023-09-12T02:38:56;100541.00;;;19.20
70831;BMP180;58451;51.550;7.208;2023-09-12T02:40:28;100553.20;;;19.20
70831;BMP180;58451;51.550;7.208;2023-09-12T02:42:00;100571.80;;;19.20
70831;BMP180;58451;51.550;7.208;2023-09-12T02:43:33;100583.60;;;19.20
70831;BMP180;58451;51.550;7.208;2023-09-12T02:45:06;100589.00;;;19.22
70831;BMP180;58451;51.550;7.208;2023-09-12T02:46:38;100579.00;;;19.30
70831;BMP180;58451;51.550;7.208;2023-09-12T02:48:10;100570.60;;;19.30
70831;BMP180;58451;51.550;7.208;2023-09-12T02:49:42;100562.00;;;19.30
70831;BMP180;58451;51.550;7.208;2023-09-12T02:51:14;100553.20;;;19.30
70831;BMP180;58451;51.550;7.208;2023-09-12T02:52:46;100545.60;;;19.30
70831;BMP180;58451;51.550;7.208;2023-09-12T02:54:18;100547.80;;;19.30
70831;BMP180;58451;51.550;7.208;2023-09-12T02:55:51;100552.60;;;19.30
70831;BMP180;58451;51.550;7.208;2023-09-12T02:57:24;100568.00;;;19.30
70831;BMP180;58451;51.550;7.208;2023-09-12T02:58:56;100576.80;;;19.30
70831;BMP180;58451;51.550;7.208;2023-09-12T03:00:29;100587.20;;;19.30
70831;BMP180;58451;51.550;7.208;2023-09-12T03:02:01;100597.40;;;19.30
70831;BMP180;58451;51.550;7.208;2023-09-12T03:03:33;100597.40;;;19.30
70831;BMP180;58451;51.550;7.208;2023-09-12T03:05:07;100590.00;;;19.30
70831;BMP180;58451;51.550;7.208;2023-09-12T03:06:39;100594.00;;;19.30
70831;BMP180;58451;51.550;7.208;2023-09-12T03:08:11;100595.60;;;19.30
70831;BMP180;58451;51.550;7.208;2023-09-12T03:09:44;100591.40;;;19.30
70831;BMP180;58451;51.550;7.208;2023-09-12T03:11:18;100602.20;;;19.30
70831;BMP180;58451;51.550;7.208;2023-09-12T03:12:50;100608.00;;;19.30
70831;BMP180;58451;51.550;7.208;2023-09-12T03:14:22;100602.20;;;19.30
70831;BMP180;58451;51.550;7.208;2023-09-12T03:15:54;100609.80;;;19.30
70831;BMP180;58451;51.550;7.208;2023-09-12T03:17:28;100611.00;;;19.30
70831;BMP180;58451;51.550;7.208;2023-09-12T03:19:01;100610.00;;;19.30
70831;BMP180;58451;51.550;7.208;2023-09-12T03:20:38;100620.40;;;19.30
70831;BMP180;58451;51.550;7.208;2023-09-12T03:22:12;100594.80;;;19.30
70831;BMP180;58451;51.550;7.208;2023-09-12T03:23:44;100584.40;;;19.30
70831;BMP180;58451;51.550;7.208;2023-09-12T03:25:16;100572.60;;;19.30
70831;BMP180;58451;51.550;7.208;2023-09-12T03:29:54;100538.00;;;19.30
70831;BMP180;58451;51.550;7.208;2023-09-12T03:31:26;100525.80;;;19.28
70831;BMP180;58451;51.550;7.208;2023-09-12T03:33:00;100510.00;;;19.30
70831;BMP180;58451;51.550;7.208;2023-09-12T03:34:32;100492.80;;;19.30
70831;BMP180;58451;51.550;7.208;2023-09-12T03:36:06;100479.40;;;19.30
70831;BMP180;58451;51.550;7.208;2023-09-12T03:41:01;100495.80;;;19.20
70831;BMP180;58451;51.550;7.208;2023-09-12T03:42:33;100506.60;;;19.20
70831;BMP180;58451;51.550;7.208;2023-09-12T03:44:13;100515.40;;;19.10
70831;BMP180;58451;51.550;7.208;2023-09-12T03:45:46;100519.40;;;19.02
70831;BMP180;58451;51.550;7.208;2023-09-12T03:47:19;100523.60;;;19.00
70831;BMP180;58451;51.550;7.208;2023-09-12T03:48:50;100518.60;;;19.00
70831;BMP180;58451;51.550;7.208;2023-09-12T03:50:24;100511.80;;;19.00
70831;BMP180;58451;51.550;7.208;2023-09-12T03:51:56;100499.60;;;19.00
70831;BMP180;58451;51.550;7.208;2023-09-12T03:53:28;100498.40;;;18.92
70831;BMP180;58451;51.550;7.208;2023-09-12T03:55:00;100502.20;;;18.92
70831;BMP180;58451;51.550;7.208;2023-09-12T03:56:33;100499.40;;;18.90
70831;BMP180;58451;51.550;7.208;2023-09-12T03:58:05;100500.20;;;18.90
70831;BMP180;58451;51.550;7.208;2023-09-12T03:59:37;100503.20;;;18.90
70831;BMP180;58451;51.550;7.208;2023-09-12T04:01:09;100503.00;;;18.90
70831;BMP180;58451;51.550;7.208;2023-09-12T04:02:41;100500.40;;;18.90
70831;BMP180;58451;51.550;7.208;2023-09-12T04:04:13;100501.40;;;18.90
70831;BMP180;58451;51.550;7.208;2023-09-12T04:05:47;100498.00;;;18.90
70831;BMP180;58451;51.550;7.208;2023-09-12T04:07:19;100491.40;;;18.90
70831;BMP180;58451;51.550;7.208;2023-09-12T04:08:51;100489.00;;;18.90
70831;BMP180;58451;51.550;7.208;2023-09-12T04:10:23;100484.40;;;18.90
70831;BMP180;58451;51.550;7.208;2023-09-12T04:11:55;100483.40;;;18.90
70831;BMP180;58451;51.550;7.208;2023-09-12T04:13:27;100478.40;;;18.82
70831;BMP180;58451;51.550;7.208;2023-09-12T04:14:59;100477.20;;;18.80
70831;BMP180;58451;51.550;7.208;2023-09-12T04:16:32;100478.20;;;18.80
70831;BMP180;58451;51.550;7.208;2023-09-12T04:18:06;100471.80;;;18.80
70831;BMP180;58451;51.550;7.208;2023-09-12T04:19:38;100466.60;;;18.80
70831;BMP180;58451;51.550;7.208;2023-09-12T04:21:10;100465.60;;;18.70
70831;BMP180;58451;51.550;7.208;2023-09-12T04:22:42;100468.60;;;18.70
70831;BMP180;58451;51.550;7.208;2023-09-12T04:24:15;100469.40;;;18.70
70831;BMP180;58451;51.550;7.208;2023-09-12T04:25:50;100468.80;;;18.70
70831;BMP180;58451;51.550;7.208;2023-09-12T04:27:22;100471.40;;;18.70
70831;BMP180;58451;51.550;7.208;2023-09-12T04:28:57;100473.20;;;18.70
70831;BMP180;58451;51.550;7.208;2023-09-12T04:30:29;100472.00;;;18.70
70831;BMP180;58451;51.550;7.208;2023-09-12T04:32:03;100476.60;;;18.70
70831;BMP180;58451;51.550;7.208;2023-09-12T04:33:37;100476.00;;;18.70
70831;BMP180;58451;51.550;7.208;2023-09-12T04:35:09;100481.60;;;18.70
70831;BMP180;58451;51.550;7.208;2023-09-12T04:36:41;100476.60;;;18.70
70831;BMP180;58451;51.550;7.208;2023-09-12T04:38:13;100474.00;;;18.70
70831;BMP180;58451;51.550;7.208;2023-09-12T04:39:48;100475.20;;;18.70
70831;BMP180;58451;51.550;7.208;2023-09-12T04:41:20;100477.80;;;18.70
70831;BMP180;58451;51.550;7.208;2023-09-12T04:42:53;100479.20;;;18.70
70831;BMP180;58451;51.550;7.208;2023-09-12T04:44:25;100478.20;;;18.70
70831;BMP180;58451;51.550;7.208;2023-09-12T04:45:58;100480.00;;;18.62
70831;BMP180;58451;51.550;7.208;2023-09-12T04:47:33;100483.40;;;18.60
70831;BMP180;58451;51.550;7.208;2023-09-12T04:49:05;100479.00;;;18.60
70831;BMP180;58451;51.550;7.208;2023-09-12T04:50:41;100482.60;;;18.60
70831;BMP180;58451;51.550;7.208;2023-09-12T04:52:17;100482.20;;;18.60
70831;BMP180;58451;51.550;7.208;2023-09-12T04:53:49;100486.60;;;18.60
70831;BMP180;58451;51.550;7.208;2023-09-12T04:55:24;100487.60;;;18.54
70831;BMP180;58451;51.550;7.208;2023-09-12T04:56:56;100484.80;;;18.50
70831;BMP180;58451;51.550;7.208;2023-09-12T04:58:28;100485.60;;;18.50
70831;BMP180;58451;51.550;7.208;2023-09-12T05:00:00;100487.00;;;18.50
70831;BMP180;58451;51.550;7.208;2023-09-12T05:01:37;100490.20;;;18.46
70831;BMP180;58451;51.550;7.208;2023-09-12T05:03:08;100489.00;;;18.40
70831;BMP180;58451;51.550;7.208;2023-09-12T05:04:41;100493.00;;;18.40
70831;BMP180;58451;51.550;7.208;2023-09-12T05:06:13;100494.00;;;18.42
70831;BMP180;58451;51.550;7.208;2023-09-12T05:07:45;100493.80;;;18.40
70831;BMP180;58451;51.550;7.208;2023-09-12T05:09:17;100492.60;;;18.40
70831;BMP180;58451;51.550;7.208;2023-09-12T05:10:50;100489.80;;;18.46
70831;BMP180;58451;51.550;7.208;2023-09-12T05:12:22;100490.60;;;18.50
70831;BMP180;58451;51.550;7.208;2023-09-12T05:13:54;100490.00;;;18.46
70831;BMP180;58451;51.550;7.208;2023-09-12T05:15:27;100490.80;;;18.46
70831;BMP180;58451;51.550;7.208;2023-09-12T05:16:59;100493.00;;;18.42
70831;BMP180;58451;51.550;7.208;2023-09-12T05:18:31;100497.60;;;18.48
70831;BMP180;58451;51.550;7.208;2023-09-12T05:20:04;100498.60;;;18.46
70831;BMP180;58451;51.550;7.208;2023-09-12T05:21:39;100498.40;;;18.42
70831;BMP180;58451;51.550;7.208;2023-09-12T05:23:11;100497.40;;;18.40
70831;BMP180;58451;51.550;7.208;2023-09-12T05:24:43;100492.00;;;18.40
70831;BMP180;58451;51.550;7.208;2023-09-12T05:26:16;100491.60;;;18.48
70831;BMP180;58451;51.550;7.208;2023-09-12T05:27:48;100487.00;;;18.50
70831;BMP180;58451;51.550;7.208;2023-09-12T05:29:20;100487.20;;;18.50
70831;BMP180;58451;51.550;7.208;2023-09-12T05:30:55;100486.60;;;18.50
70831;BMP180;58451;51.550;7.208;2023-09-12T05:32:27;100491.00;;;18.56
70831;BMP180;58451;51.550;7.208;2023-09-12T05:33:59;100493.40;;;18.60
70831;BMP180;58451;51.550;7.208;2023-09-12T05:35:31;100500.60;;;18.60
70831;BMP180;58451;51.550;7.208;2023-09-12T05:37:03;100509.00;;;18.56
70831;BMP180;58451;51.550;7.208;2023-09-12T05:38:35;100512.20;;;18.52
70831;BMP180;58451;51.550;7.208;2023-09-12T05:40:08;100523.80;;;18.58
70831;BMP180;58451;51.550;7.208;2023-09-12T05:41:41;100531.20;;;18.60
70831;BMP180;58451;51.550;7.208;2023-09-12T05:43:13;100539.20;;;18.60
70831;BMP180;58451;51.550;7.208;2023-09-12T05:44:47;100546.00;;;18.60
70831;BMP180;58451;51.550;7.208;2023-09-12T05:46:20;100546.40;;;18.60
70831;BMP180;58451;51.550;7.208;2023-09-12T05:47:52;100547.60;;;18.60
70831;BMP180;58451;51.550;7.208;2023-09-12T05:49:24;100531.00;;;18.60
70831;BMP180;58451;51.550;7.208;2023-09-12T05:50:56;100514.20;;;18.60
70831;BMP180;58451;51.550;7.208;2023-09-12T05:52:28;100499.40;;;18.60
70831;BMP180;58451;51.550;7.208;2023-09-12T05:54:00;100495.40;;;18.50
70831;BMP180;58451;51.550;7.208;2023-09-12T05:55:32;100503.60;;;18.50
70831;BMP180;58451;51.550;7.208;2023-09-12T05:57:04;100514.80;;;18.50
70831;BMP180;58451;51.550;7.208;2023-09-12T05:58:38;100519.20;;;18.50
70831;BMP180;58451;51.550;7.208;2023-09-12T06:00:16;100518.40;;;18.50
70831;BMP180;58451;51.550;7.208;2023-09-12T06:01:49;100518.40;;;18.58
70831;BMP180;58451;51.550;7.208;2023-09-12T06:03:21;100518.20;;;18.60
70831;BMP180;58451;51.550;7.208;2023-09-12T06:04:54;100527.00;;;18.60
70831;BMP180;58451;51.550;7.208;2023-09-12T06:06:27;100533.80;;;18.60
70831;BMP180;58451;51.550;7.208;2023-09-12T06:07:59;100540.80;;;18.60
70831;BMP180;58451;51.550;7.208;2023-09-12T06:09:31;100553.80;;;18.70
70831;BMP180;58451;51.550;7.208;2023-09-12T06:11:04;100564.60;;;18.70
70831;BMP180;58451;51.550;7.208;2023-09-12T06:12:36;100567.20;;;18.70
70831;BMP180;58451;51.550;7.208;2023-09-12T06:14:08;100566.40;;;18.70
70831;BMP180;58451;51.550;7.208;2023-09-12T06:15:41;100569.80;;;18.70
70831;BMP180;58451;51.550;7.208;2023-09-12T06:17:13;100569.20;;;18.70
70831;BMP180;58451;51.550;7.208;2023-09-12T06:18:45;100575.40;;;18.70
70831;BMP180;58451;51.550;7.208;2023-09-12T06:20:18;100575.00;;;18.70
70831;BMP180;58451;51.550;7.208;2023-09-12T06:21:50;100577.00;;;18.76
70831;BMP180;58451;51.550;7.208;2023-09-12T06:23:22;100585.60;;;18.80
70831;BMP180;58451;51.550;7.208;2023-09-12T06:24:54;100582.40;;;18.80
70831;BMP180;58451;51.550;7.208;2023-09-12T06:26:26;100591.20;;;18.80
70831;BMP180;58451;51.550;7.208;2023-09-12T06:27:58;100592.40;;;18.80
70831;BMP180;58451;51.550;7.208;2023-09-12T06:29:29;100586.80;;;18.90
70831;BMP180;58451;51.550;7.208;2023-09-12T06:31:01;100586.80;;;18.90
70831;BMP180;58451;51.550;7.208;2023-09-12T06:32:33;100586.00;;;18.90
70831;BMP180;58451;51.550;7.208;2023-09-12T06:34:05;100583.00;;;18.96
70831;BMP180;58451;51.550;7.208;2023-09-12T06:35:37;100594.00;;;19.00
70831;BMP180;58451;51.550;7.208;2023-09-12T06:37:13;100596.40;;;19.00
70831;BMP180;58451;51.550;7.208;2023-09-12T06:38:45;100614.40;;;19.00
70831;BMP180;58451;51.550;7.208;2023-09-12T06:40:17;100640.40;;;19.00
70831;BMP180;58451;51.550;7.208;2023-09-12T06:41:49;100674.20;;;19.00
70831;BMP180;58451;51.550;7.208;2023-09-12T06:43:22;100697.20;;;19.00
70831;BMP180;58451;51.550;7.208;2023-09-12T06:44:53;100710.20;;;18.90
70831;BMP180;58451;51.550;7.208;2023-09-12T06:46:27;100718.20;;;18.90
70831;BMP180;58451;51.550;7.208;2023-09-12T06:47:59;100711.00;;;18.90
70831;BMP180;58451;51.550;7.208;2023-09-12T06:49:31;100702.80;;;18.80
70831;BMP180;58451;51.550;7.208;2023-09-12T06:51:09;100700.20;;;18.80
70831;BMP180;58451;51.550;7.208;2023-09-12T06:52:48;100693.00;;;18.80
70831;BMP180;58451;51.550;7.208;2023-09-12T06:54:20;100673.00;;;18.70
70831;BMP180;58451;51.550;7.208;2023-09-12T06:55:52;100633.20;;;18.66
70831;BMP180;58451;51.550;7.208;2023-09-12T06:57:25;100613.60;;;18.56
70831;BMP180;58451;51.550;7.208;2023-09-12T06:58:57;100617.20;;;18.50
70831;BMP180;58451;51.550;7.208;2023-09-12T07:00:31;100627.80;;;18.40
70831;BMP180;58451;51.550;7.208;2023-09-12T07:02:03;100624.00;;;18.40
70831;BMP180;58451;51.550;7.208;2023-09-12T07:03:36;100617.20;;;18.40
70831;BMP180;58451;51.550;7.208;2023-09-12T07:05:09;100613.60;;;18.30
70831;BMP180;58451;51.550;7.208;2023-09-12T07:06:41;100611.60;;;18.30
70831;BMP180;58451;51.550;7.208;2023-09-12T07:08:14;100602.00;;;18.30
70831;BMP180;58451;51.550;7.208;2023-09-12T07:09:46;100595.80;;;18.30
70831;BMP180;58451;51.550;7.208;2023-09-12T07:11:18;100596.20;;;18.30
70831;BMP180;58451;51.550;7.208;2023-09-12T07:12:53;100594.40;;;18.30
70831;BMP180;58451;51.550;7.208;2023-09-12T07:14:26;100592.40;;;18.30
70831;BMP180;58451;51.550;7.208;2023-09-12T07:15:58;100587.40;;;18.30
70831;BMP180;58451;51.550;7.208;2023-09-12T07:17:30;100576.40;;;18.30
70831;BMP180;58451;51.550;7.208;2023-09-12T07:19:02;100571.60;;;18.30
70831;BMP180;58451;51.550;7.208;2023-09-12T07:20:35;100582.00;;;18.30
70831;BMP180;58451;51.550;7.208;2023-09-12T07:22:07;100582.20;;;18.30
70831;BMP180;58451;51.550;7.208;2023-09-12T07:23:39;100575.60;;;18.30
70831;BMP180;58451;51.550;7.208;2023-09-12T07:25:14;100587.40;;;18.30
70831;BMP180;58451;51.550;7.208;2023-09-12T07:26:46;100589.80;;;18.30
70831;BMP180;58451;51.550;7.208;2023-09-12T07:28:18;100576.40;;;18.30
70831;BMP180;58451;51.550;7.208;2023-09-12T07:29:51;100563.00;;;18.20
70831;BMP180;58451;51.550;7.208;2023-09-12T07:31:23;100553.20;;;18.20
70831;BMP180;58451;51.550;7.208;2023-09-12T07:32:55;100557.20;;;18.20
70831;BMP180;58451;51.550;7.208;2023-09-12T07:34:29;100560.60;;;18.20
70831;BMP180;58451;51.550;7.208;2023-09-12T07:36:01;100560.60;;;18.14
70831;BMP180;58451;51.550;7.208;2023-09-12T07:37:36;100556.40;;;18.10
70831;BMP180;58451;51.550;7.208;2023-09-12T07:39:08;100546.00;;;18.10
70831;BMP180;58451;51.550;7.208;2023-09-12T07:40:42;100544.40;;;18.10
70831;BMP180;58451;51.550;7.208;2023-09-12T07:42:14;100558.00;;;18.18
70831;BMP180;58451;51.550;7.208;2023-09-12T07:43:46;100569.20;;;18.20
70831;BMP180;58451;51.550;7.208;2023-09-12T07:45:18;100563.00;;;18.20
70831;BMP180;58451;51.550;7.208;2023-09-12T07:46:53;100567.00;;;18.20
70831;BMP180;58451;51.550;7.208;2023-09-12T07:48:26;100569.40;;;18.26
70831;BMP180;58451;51.550;7.208;2023-09-12T07:50:00;100562.40;;;18.30
70831;BMP180;58451;51.550;7.208;2023-09-12T07:51:32;100559.20;;;18.30
70831;BMP180;58451;51.550;7.208;2023-09-12T07:53:07;100565.40;;;18.40
70831;BMP180;58451;51.550;7.208;2023-09-12T07:54:40;100570.60;;;18.48
70831;BMP180;58451;51.550;7.208;2023-09-12T07:56:14;100571.00;;;18.56
70831;BMP180;58451;51.550;7.208;2023-09-12T07:57:46;100566.40;;;18.70
70831;BMP180;58451;51.550;7.208;2023-09-12T07:59:19;100562.00;;;18.80
70831;BMP180;58451;51.550;7.208;2023-09-12T08:00:51;100563.20;;;18.88
70831;BMP180;58451;51.550;7.208;2023-09-12T08:02:23;100559.60;;;19.00
70831;BMP180;58451;51.550;7.208;2023-09-12T08:03:55;100560.60;;;19.02
70831;BMP180;58451;51.550;7.208;2023-09-12T08:05:27;100556.00;;;19.10
70831;BMP180;58451;51.550;7.208;2023-09-12T08:06:59;100556.40;;;19.20
70831;BMP180;58451;51.550;7.208;2023-09-12T08:08:33;100561.40;;;19.30
70831;BMP180;58451;51.550;7.208;2023-09-12T08:10:05;100561.40;;;19.48
70831;BMP180;58451;51.550;7.208;2023-09-12T08:11:37;100563.40;;;19.60
70831;BMP180;58451;51.550;7.208;2023-09-12T08:13:09;100564.60;;;19.70
70831;BMP180;58451;51.550;7.208;2023-09-12T08:14:41;100558.60;;;19.70
70831;BMP180;58451;51.550;7.208;2023-09-12T08:16:13;100560.00;;;19.70
70831;BMP180;58451;51.550;7.208;2023-09-12T08:17:45;100563.80;;;19.78
70831;BMP180;58451;51.550;7.208;2023-09-12T08:19:17;100563.20;;;19.80
70831;BMP180;58451;51.550;7.208;2023-09-12T08:20:50;100565.60;;;19.82
70831;BMP180;58451;51.550;7.208;2023-09-12T08:22:22;100563.80;;;19.90
70831;BMP180;58451;51.550;7.208;2023-09-12T08:23:54;100570.40;;;19.90
70831;BMP180;58451;51.550;7.208;2023-09-12T08:25:27;100568.60;;;19.90
70831;BMP180;58451;51.550;7.208;2023-09-12T08:26:59;100567.60;;;19.90
70831;BMP180;58451;51.550;7.208;2023-09-12T08:28:31;100573.00;;;19.98
70831;BMP180;58451;51.550;7.208;2023-09-12T08:30:04;100572.80;;;20.00
70831;BMP180;58451;51.550;7.208;2023-09-12T08:31:37;100574.60;;;20.00
70831;BMP180;58451;51.550;7.208;2023-09-12T08:33:08;100578.00;;;19.96
70831;BMP180;58451;51.550;7.208;2023-09-12T08:34:40;100578.80;;;19.90
70831;BMP180;58451;51.550;7.208;2023-09-12T08:36:12;100587.20;;;20.00
70831;BMP180;58451;51.550;7.208;2023-09-12T08:37:46;100593.80;;;20.00
70831;BMP180;58451;51.550;7.208;2023-09-12T08:39:24;100597.00;;;20.00
70831;BMP180;58451;51.550;7.208;2023-09-12T08:40:57;100593.00;;;20.00
70831;BMP180;58451;51.550;7.208;2023-09-12T08:42:30;100591.20;;;20.00
70831;BMP180;58451;51.550;7.208;2023-09-12T08:44:05;100591.00;;;20.06
70831;BMP180;58451;51.550;7.208;2023-09-12T08:45:39;100594.00;;;20.10
70831;BMP180;58451;51.550;7.208;2023-09-12T08:47:11;100596.80;;;20.10
70831;BMP180;58451;51.550;7.208;2023-09-12T08:48:47;100597.20;;;20.20
70831;BMP180;58451;51.550;7.208;2023-09-12T08:50:20;100602.20;;;20.26
70831;BMP180;58451;51.550;7.208;2023-09-12T08:51:55;100603.20;;;20.30
70831;BMP180;58451;51.550;7.208;2023-09-12T08:53:27;100602.00;;;20.40
70831;BMP180;58451;51.550;7.208;2023-09-12T08:54:59;100604.20;;;20.50
70831;BMP180;58451;51.550;7.208;2023-09-12T08:56:35;100601.40;;;20.60
70831;BMP180;58451;51.550;7.208;2023-09-12T08:58:07;100604.00;;;20.74
70831;BMP180;58451;51.550;7.208;2023-09-12T08:59:43;100606.60;;;20.90
70831;BMP180;58451;51.550;7.208;2023-09-12T09:01:18;100610.20;;;21.10